Airfield :
LOGIN :

Register | Disclaimer

   EN    FR    IT 

 










Legend :    VFR   Marginal VFR   IFR   Intensive IFR   Very Intensive IFR
Visi :
Ceiling :
>= 8 km
>= 3000ft
5 to 8 km
1000 to 3000 ft
1500m to 5 km
500 to 1000 ft
800 to 1500m
200 to 500 ft
< 800m
< 200 ft
Symbols :   Thunderstorms  Fog  Heavy snow  Heavy precipitations  Wind > 20 kt
SIGMETs :     Misc.  Thunderstorms  Icing  Turbulence  Mountain Waves  Volcanic Ashes






- Airport Elevation : 791 ft
- IATA code : KRK


EPKK - Krakow-Balice

CURRENT METAR :
  • 200700Z 23010KT CAVOK 21/08 Q1021

EXPIRED METARs :
  • 200630Z 21005KT 160V250 CAVOK 19/08 Q1021
  • 200600Z 21004KT CAVOK 17/08 Q1021
  • 200530Z 22003KT CAVOK 15/06 Q1021
  • 200500Z 24002KT CAVOK 13/07 Q1021
  • 200430Z 18001KT CAVOK 11/06 Q1021

TAF TAF EPKK
Valid from the 20 at 06:00 until the 21 at 06:00 UTC


200530Z 2006/2106 VRB02KT CAVOK
BECMG 2006/2008 25010KT
PROB40
TEMPO 2006/2009 SHRA SCT050CB
TEMPO 2018/2106 VRB18G35KT 3000 TSRAGR BKN030CB



MET'MAP, your aeronautical weather chart ! - Copyright ORBIFLY December 2007 - Disclaimer

ORBIFLY MET'MAP TEAM :

Programming & Development : Alexandra Zaïnal
Original concept : Baudouin d'Aumeries
Technical & hardware support : Manuel Goepfert
Assistance : Marc-Olivier Méhu

Contact : metmap@orbifly.com




SOURCES & CREDITS :

   NOAA